createdAt,value
2022-10-28T00:00:56.450Z,12.20
2022-10-28T00:02:29.532Z,12.20
2022-10-28T00:04:01.920Z,12.20
2022-10-28T00:05:35.326Z,12.20
2022-10-28T00:07:08.364Z,12.30
2022-10-28T00:08:42.956Z,12.20
2022-10-28T00:10:16.124Z,12.20
2022-10-28T00:11:49.175Z,12.20
2022-10-28T00:13:21.236Z,12.20
2022-10-28T00:14:54.252Z,12.20
2022-10-28T00:16:29.023Z,12.20
2022-10-28T00:18:01.153Z,12.20
2022-10-28T00:19:34.178Z,12.20
2022-10-28T00:21:08.717Z,12.20
2022-10-28T00:22:41.742Z,12.20
2022-10-28T00:24:16.181Z,12.20
2022-10-28T00:25:49.204Z,12.20
2022-10-28T00:27:22.255Z,12.10
2022-10-28T00:28:59.006Z,12.10
2022-10-28T00:30:32.047Z,12.10
2022-10-28T00:32:05.337Z,12.10
2022-10-28T00:33:38.558Z,12.10
2022-10-28T00:35:11.630Z,12.20
2022-10-28T00:36:46.577Z,12.20
2022-10-28T00:38:18.649Z,12.10
2022-10-28T00:39:53.041Z,12.10
2022-10-28T00:41:28.694Z,12.10
2022-10-28T00:43:01.831Z,12.10
2022-10-28T00:44:57.962Z,12.10
2022-10-28T00:46:38.068Z,12.20
2022-10-28T00:48:11.118Z,12.30
2022-10-28T00:49:46.724Z,12.30
2022-10-28T00:51:23.908Z,12.30
2022-10-28T00:53:00.538Z,12.30
2022-10-28T00:54:34.584Z,12.30
2022-10-28T00:56:11.138Z,12.30
2022-10-28T00:57:46.040Z,12.30
2022-10-28T00:59:23.972Z,12.30
2022-10-28T01:00:57.330Z,12.30
2022-10-28T01:02:30.678Z,12.40
2022-10-28T01:04:04.119Z,12.40
2022-10-28T01:05:40.789Z,12.40
2022-10-28T01:07:13.465Z,12.40
2022-10-28T01:08:46.468Z,12.40
2022-10-28T01:10:20.099Z,12.40
2022-10-28T01:12:01.716Z,12.40
2022-10-28T01:13:45.264Z,12.40
2022-10-28T01:15:29.846Z,12.40
2022-10-28T01:17:25.074Z,12.40
2022-10-28T01:19:14.021Z,12.40
2022-10-28T01:21:15.868Z,12.40
2022-10-28T01:22:55.190Z,12.50
2022-10-28T01:24:53.143Z,12.50
2022-10-28T01:26:57.432Z,12.50
2022-10-28T01:29:06.193Z,12.60
2022-10-28T01:31:12.055Z,12.60
2022-10-28T01:32:56.798Z,12.70
2022-10-28T01:34:34.200Z,12.70
2022-10-28T01:36:15.612Z,12.70
2022-10-28T01:37:55.509Z,12.70
2022-10-28T01:39:33.853Z,12.70
2022-10-28T01:41:12.426Z,12.70
2022-10-28T01:42:49.825Z,12.70
2022-10-28T01:44:28.976Z,12.70
2022-10-28T01:46:05.074Z,12.70
2022-10-28T01:47:46.127Z,12.60
2022-10-28T01:49:23.830Z,12.60
2022-10-28T01:51:02.063Z,12.60
2022-10-28T01:52:35.749Z,12.60
2022-10-28T01:54:09.982Z,12.60
2022-10-28T01:55:47.056Z,12.60
2022-10-28T01:57:20.346Z,12.60
2022-10-28T01:58:56.660Z,12.60
2022-10-28T02:00:32.749Z,12.60
2022-10-28T02:02:05.833Z,12.60
2022-10-28T02:03:40.491Z,12.60
2022-10-28T02:05:40.078Z,12.60
2022-10-28T02:07:13.149Z,12.60
2022-10-28T02:09:04.861Z,12.60
2022-10-28T02:10:44.976Z,12.60
2022-10-28T02:12:24.798Z,12.60
2022-10-28T02:14:08.491Z,12.70
2022-10-28T02:15:47.835Z,12.70
2022-10-28T02:17:27.872Z,12.70
2022-10-28T02:19:09.916Z,12.70
2022-10-28T02:20:52.310Z,12.70
2022-10-28T02:22:30.575Z,12.80
2022-10-28T02:24:11.829Z,12.80
2022-10-28T02:25:47.568Z,12.80
2022-10-28T02:27:30.337Z,12.90
2022-10-28T02:29:07.424Z,12.90
2022-10-28T02:30:47.317Z,12.90
2022-10-28T02:32:26.007Z,12.90
2022-10-28T02:34:05.540Z,12.90
2022-10-28T02:35:45.037Z,12.90
2022-10-28T02:37:24.855Z,12.90
2022-10-28T02:39:00.538Z,12.90
2022-10-28T02:40:34.174Z,12.90
2022-10-28T02:42:10.886Z,12.80
2022-10-28T02:43:46.819Z,12.80
2022-10-28T02:45:23.847Z,12.80
2022-10-28T02:47:00.589Z,12.80
2022-10-28T02:48:38.123Z,12.80
2022-10-28T02:50:17.301Z,12.80
2022-10-28T02:51:55.357Z,12.80
2022-10-28T02:53:32.342Z,12.80
2022-10-28T02:55:06.860Z,12.80
2022-10-28T02:56:43.465Z,12.80
2022-10-28T02:58:16.587Z,12.70
2022-10-28T02:59:54.083Z,12.80
2022-10-28T03:01:27.313Z,12.80
2022-10-28T03:03:00.566Z,12.80
2022-10-28T03:04:33.750Z,12.80
2022-10-28T03:06:07.305Z,12.90
2022-10-28T03:07:40.385Z,12.90
2022-10-28T03:09:12.430Z,13.00
2022-10-28T03:10:45.453Z,13.00
2022-10-28T03:12:18.557Z,13.00
2022-10-28T03:13:51.588Z,13.00
2022-10-28T03:15:24.640Z,13.00
2022-10-28T03:16:57.697Z,13.10
2022-10-28T03:18:30.723Z,13.10
2022-10-28T03:20:02.838Z,13.10
2022-10-28T03:21:37.280Z,13.10
2022-10-28T03:23:10.356Z,13.10
2022-10-28T03:24:43.456Z,13.10
2022-10-28T03:26:16.493Z,13.20
2022-10-28T03:27:49.530Z,13.20
2022-10-28T03:29:22.555Z,13.20
2022-10-28T03:30:55.607Z,13.20
2022-10-28T03:32:28.640Z,13.10
2022-10-28T03:34:00.737Z,13.10
2022-10-28T03:35:33.784Z,13.10
2022-10-28T03:37:08.187Z,13.10
2022-10-28T03:38:40.278Z,13.10
2022-10-28T03:40:14.129Z,13.10
2022-10-28T03:41:47.234Z,13.00
2022-10-28T03:43:20.295Z,13.00
2022-10-28T03:44:52.337Z,13.00
2022-10-28T03:46:25.490Z,13.10
2022-10-28T03:47:58.522Z,13.10
2022-10-28T03:49:30.598Z,13.10
2022-10-28T03:51:03.704Z,13.10
2022-10-28T03:52:37.108Z,13.10
2022-10-28T03:54:10.179Z,13.20
2022-10-28T03:55:42.240Z,13.20
2022-10-28T03:57:15.265Z,13.20
2022-10-28T03:58:48.941Z,13.20
2022-10-28T04:00:22.212Z,13.20
2022-10-28T04:01:55.441Z,13.20
2022-10-28T04:03:28.591Z,13.20
2022-10-28T04:05:01.623Z,13.20
2022-10-28T04:06:34.712Z,13.10
2022-10-28T04:08:09.155Z,13.20
2022-10-28T04:09:42.852Z,13.20
2022-10-28T04:11:16.005Z,13.20
2022-10-28T04:12:48.058Z,13.10
2022-10-28T04:14:21.078Z,13.10
2022-10-28T04:15:54.135Z,13.10
2022-10-28T04:17:26.191Z,13.10
2022-10-28T04:18:59.319Z,13.10
2022-10-28T04:20:32.623Z,13.00
2022-10-28T04:22:05.744Z,13.10
2022-10-28T04:23:40.161Z,13.10
2022-10-28T04:25:13.285Z,13.10
2022-10-28T04:26:46.287Z,13.00
2022-10-28T04:28:19.360Z,13.10
2022-10-28T04:29:52.388Z,13.00
2022-10-28T04:31:25.485Z,13.10
2022-10-28T04:32:58.541Z,13.10
2022-10-28T04:34:31.743Z,13.00
2022-10-28T04:36:05.029Z,13.00
2022-10-28T04:37:38.509Z,13.10
2022-10-28T04:39:12.962Z,13.10
2022-10-28T04:40:48.364Z,13.10
2022-10-28T04:42:21.372Z,13.10
2022-10-28T04:43:56.023Z,13.10
2022-10-28T04:45:29.062Z,13.10
2022-10-28T04:47:02.124Z,13.10
2022-10-28T04:48:35.339Z,13.10
2022-10-28T04:50:08.269Z,13.10
2022-10-28T04:51:41.369Z,13.10
2022-10-28T04:53:14.788Z,13.10
2022-10-28T04:54:49.195Z,13.00
2022-10-28T04:56:22.338Z,13.00
2022-10-28T04:57:56.242Z,13.00
2022-10-28T04:59:29.384Z,13.00
2022-10-28T05:01:06.805Z,13.00
2022-10-28T05:02:41.483Z,13.00
2022-10-28T05:04:18.130Z,13.00
2022-10-28T05:05:51.152Z,12.90
2022-10-28T05:07:24.216Z,12.90
2022-10-28T05:08:57.527Z,12.90
2022-10-28T05:10:31.946Z,13.00
2022-10-28T05:12:05.298Z,12.90
2022-10-28T05:13:37.373Z,12.90
2022-10-28T05:15:11.938Z,12.90
2022-10-28T05:16:44.976Z,12.90
2022-10-28T05:18:18.144Z,13.00
2022-10-28T05:19:51.191Z,13.00
2022-10-28T05:21:24.289Z,13.00
2022-10-28T05:22:57.762Z,13.00
2022-10-28T05:24:31.036Z,13.00
2022-10-28T05:26:05.632Z,13.00
2022-10-28T05:27:38.649Z,13.00
2022-10-28T05:29:11.699Z,13.00
2022-10-28T05:30:45.026Z,12.90
2022-10-28T05:32:18.065Z,12.80
2022-10-28T05:33:51.100Z,12.70
2022-10-28T05:35:24.149Z,12.60
2022-10-28T05:36:57.177Z,12.60
2022-10-28T05:38:30.224Z,12.50
2022-10-28T05:40:03.329Z,12.50
2022-10-28T05:41:38.886Z,12.50
2022-10-28T05:43:12.281Z,12.50
2022-10-28T05:44:45.307Z,12.50
2022-10-28T05:46:18.381Z,12.50
2022-10-28T05:47:51.524Z,12.50
2022-10-28T05:49:24.766Z,12.50
2022-10-28T05:50:57.868Z,12.60
2022-10-28T05:52:30.933Z,12.60
2022-10-28T05:54:03.955Z,12.60
2022-10-28T05:55:37.071Z,12.70
2022-10-28T05:57:10.496Z,12.70
2022-10-28T05:58:43.576Z,12.70
2022-10-28T06:00:18.290Z,12.70
2022-10-28T06:01:51.401Z,12.80
2022-10-28T06:03:28.625Z,12.80
2022-10-28T06:05:04.364Z,12.80
2022-10-28T06:06:37.551Z,12.90
2022-10-28T06:08:12.293Z,12.90
2022-10-28T06:09:45.361Z,12.90
2022-10-28T06:11:16.906Z,12.90
2022-10-28T06:12:51.598Z,12.90
2022-10-28T06:14:24.919Z,13.00
2022-10-28T06:15:58.026Z,13.00
2022-10-28T06:17:30.241Z,13.00
2022-10-28T06:19:03.350Z,13.00
2022-10-28T06:20:36.402Z,13.00
2022-10-28T06:22:09.639Z,13.00
2022-10-28T06:23:42.673Z,13.00
2022-10-28T06:25:16.104Z,13.10
2022-10-28T06:26:49.337Z,13.00
2022-10-28T06:28:23.996Z,13.10
2022-10-28T06:29:57.027Z,13.10
2022-10-28T06:31:30.072Z,13.10
2022-10-28T06:33:03.174Z,13.10
2022-10-28T06:34:37.620Z,13.10
2022-10-28T06:36:10.682Z,13.10
2022-10-28T06:37:43.819Z,13.10
2022-10-28T06:39:16.983Z,13.10
2022-10-28T06:40:52.394Z,13.20
2022-10-28T06:42:25.911Z,13.20
2022-10-28T06:44:00.449Z,13.20
2022-10-28T06:45:34.527Z,13.30
2022-10-28T06:47:09.168Z,13.30
2022-10-28T06:48:42.283Z,13.30
2022-10-28T06:50:15.447Z,13.30
2022-10-28T06:51:49.852Z,13.40
2022-10-28T06:53:23.276Z,13.40
2022-10-28T06:54:56.342Z,13.40
2022-10-28T06:56:29.467Z,13.40
2022-10-28T06:58:03.660Z,13.50
2022-10-28T06:59:38.458Z,13.50
2022-10-28T07:01:11.946Z,13.50
2022-10-28T07:02:45.399Z,13.60
2022-10-28T07:04:18.583Z,13.60
2022-10-28T07:05:51.902Z,13.70
2022-10-28T07:07:24.994Z,13.80
2022-10-28T07:08:58.098Z,13.80
2022-10-28T07:10:31.303Z,13.90
2022-10-28T07:12:05.596Z,14.10
2022-10-28T07:13:38.824Z,14.30
2022-10-28T07:15:13.922Z,14.60
2022-10-28T07:16:47.131Z,14.80
2022-10-28T07:18:20.504Z,15.00
2022-10-28T07:19:53.553Z,15.10
2022-10-28T07:21:28.517Z,15.20
2022-10-28T07:23:02.702Z,15.40
2022-10-28T07:24:35.737Z,15.60
2022-10-28T07:26:08.775Z,15.70
2022-10-28T07:27:41.831Z,15.70
2022-10-28T07:29:14.949Z,15.90
2022-10-28T07:30:49.385Z,15.90
2022-10-28T07:32:22.419Z,16.00
2022-10-28T07:33:55.720Z,16.00
2022-10-28T07:35:29.193Z,15.90
2022-10-28T07:37:02.450Z,15.90
2022-10-28T07:38:35.928Z,15.80
2022-10-28T07:40:09.804Z,15.70
2022-10-28T07:41:42.842Z,15.70
2022-10-28T07:43:15.930Z,15.70
2022-10-28T07:44:48.955Z,15.80
2022-10-28T07:46:23.399Z,16.00
2022-10-28T07:47:56.422Z,16.20
2022-10-28T07:49:29.557Z,16.50
2022-10-28T07:51:03.191Z,16.60
2022-10-28T07:52:37.048Z,16.70
2022-10-28T07:54:10.223Z,16.90
2022-10-28T07:55:43.236Z,17.00
2022-10-28T07:57:16.332Z,17.10
2022-10-28T07:58:49.734Z,17.30
2022-10-28T08:00:22.972Z,17.50
2022-10-28T08:01:57.494Z,17.80
2022-10-28T08:03:34.699Z,17.90
2022-10-28T08:05:11.360Z,17.90
2022-10-28T08:06:44.459Z,18.30
2022-10-28T08:08:17.599Z,18.40
2022-10-28T08:09:50.666Z,18.70
2022-10-28T08:11:24.787Z,18.90
2022-10-28T08:12:58.921Z,19.10
2022-10-28T08:14:31.947Z,19.10
2022-10-28T08:16:05.395Z,19.10
2022-10-28T08:17:40.083Z,19.20
2022-10-28T08:19:13.207Z,19.20
2022-10-28T08:20:46.245Z,19.20
2022-10-28T08:22:19.272Z,19.20
2022-10-28T08:23:52.704Z,19.30
2022-10-28T08:25:25.822Z,19.50
2022-10-28T08:26:58.947Z,19.60
2022-10-28T08:28:32.333Z,19.70
2022-10-28T08:30:06.231Z,19.70
2022-10-28T08:31:39.433Z,19.60
2022-10-28T08:33:14.122Z,19.50
2022-10-28T08:34:47.167Z,19.60
2022-10-28T08:36:20.236Z,19.60
2022-10-28T08:37:53.637Z,19.50
2022-10-28T08:39:26.849Z,19.40
2022-10-28T08:41:08.833Z,19.20
2022-10-28T08:42:48.806Z,19.00
2022-10-28T08:44:57.900Z,18.80
2022-10-28T08:46:50.506Z,18.40
2022-10-28T08:48:32.339Z,18.20
2022-10-28T08:50:13.473Z,18.10
2022-10-28T08:51:53.833Z,18.20
2022-10-28T08:53:30.050Z,18.40
2022-10-28T08:55:07.764Z,18.40
2022-10-28T08:56:45.953Z,18.40
2022-10-28T08:58:23.640Z,18.30
2022-10-28T08:59:56.987Z,18.10
2022-10-28T09:01:38.721Z,18.10
2022-10-28T09:03:22.315Z,18.00
2022-10-28T09:05:03.413Z,17.80
2022-10-28T09:06:36.448Z,17.60
2022-10-28T09:08:22.479Z,17.50
2022-10-28T09:09:56.830Z,17.40
2022-10-28T09:11:55.239Z,17.60
2022-10-28T09:13:34.601Z,17.70
2022-10-28T09:15:21.008Z,17.80
2022-10-28T09:17:05.179Z,17.80
2022-10-28T09:18:52.829Z,17.80
2022-10-28T09:20:40.594Z,17.70
2022-10-28T09:22:23.830Z,17.80
2022-10-28T09:23:58.630Z,17.90
2022-10-28T09:25:40.295Z,17.90
2022-10-28T09:27:24.002Z,17.90
2022-10-28T09:30:50.389Z,17.90
2022-10-28T09:32:34.861Z,17.80
2022-10-28T09:34:18.962Z,17.70
2022-10-28T09:35:54.138Z,17.70
2022-10-28T09:37:32.194Z,17.70
2022-10-28T09:39:08.240Z,17.50
2022-10-28T09:40:45.116Z,17.40
2022-10-28T09:42:23.284Z,17.30
2022-10-28T09:44:00.339Z,17.20
2022-10-28T09:45:37.077Z,17.20
2022-10-28T09:47:17.405Z,17.30
2022-10-28T09:48:52.878Z,17.50
2022-10-28T09:50:30.869Z,17.90
2022-10-28T09:52:15.342Z,18.40
2022-10-28T09:53:54.418Z,19.00
2022-10-28T09:55:27.591Z,19.60
2022-10-28T09:57:00.881Z,20.20
2022-10-28T09:58:35.019Z,20.70
2022-10-28T10:00:12.896Z,20.70
2022-10-28T10:01:47.788Z,20.20
2022-10-28T10:03:20.938Z,19.80
2022-10-28T10:04:54.129Z,19.50
2022-10-28T10:06:30.774Z,19.20
2022-10-28T10:08:06.852Z,19.00
2022-10-28T10:09:40.819Z,18.70
2022-10-28T10:11:25.439Z,18.50
2022-10-28T10:13:01.069Z,18.20
2022-10-28T10:14:40.594Z,18.10
2022-10-28T10:16:19.731Z,18.00
2022-10-28T10:17:53.882Z,17.90
2022-10-28T10:19:27.040Z,17.90
2022-10-28T10:21:00.954Z,17.70
2022-10-28T10:22:36.270Z,17.70
2022-10-28T10:24:25.188Z,17.60
2022-10-28T10:26:06.755Z,17.60
2022-10-28T10:27:42.718Z,17.50
2022-10-28T10:29:15.838Z,17.40
2022-10-28T10:30:52.495Z,17.40
2022-10-28T10:32:28.129Z,17.30
2022-10-28T10:34:01.213Z,17.30
2022-10-28T10:35:37.801Z,17.20
2022-10-28T10:37:20.594Z,17.20
2022-10-28T10:38:55.996Z,17.20
2022-10-28T10:40:32.226Z,17.20
2022-10-28T10:42:17.377Z,17.20
2022-10-28T10:43:50.447Z,17.40
2022-10-28T10:45:26.104Z,17.60
2022-10-28T10:47:22.663Z,17.70
2022-10-28T10:49:12.800Z,17.70
2022-10-28T10:50:47.907Z,17.60
2022-10-28T10:52:25.869Z,17.60
2022-10-28T10:54:00.791Z,17.60
2022-10-28T10:55:41.238Z,17.60
2022-10-28T10:57:20.275Z,17.50
2022-10-28T10:58:56.027Z,17.50
2022-10-28T11:00:33.780Z,17.40
2022-10-28T11:02:23.437Z,17.40
2022-10-28T11:04:00.416Z,17.30
2022-10-28T11:05:38.075Z,17.30
2022-10-28T11:07:16.658Z,17.30
2022-10-28T11:08:49.962Z,17.20
2022-10-28T11:10:25.242Z,17.20
2022-10-28T11:12:00.268Z,17.20
2022-10-28T11:13:34.637Z,17.20
2022-10-28T11:15:23.158Z,17.30
2022-10-28T11:16:58.033Z,17.30
2022-10-28T11:18:41.575Z,17.40
2022-10-28T11:20:25.422Z,17.50
2022-10-28T11:22:12.676Z,17.60
2022-10-28T11:23:54.688Z,17.80
2022-10-28T11:25:37.183Z,17.90
2022-10-28T11:27:22.533Z,18.00
2022-10-28T11:29:09.953Z,18.70
2022-10-28T11:30:53.974Z,19.20
2022-10-28T11:32:44.098Z,19.20
2022-10-28T11:34:47.250Z,19.10
2022-10-28T11:36:26.457Z,19.20
2022-10-28T11:38:13.041Z,19.00
2022-10-28T11:39:57.951Z,18.70
2022-10-28T11:41:41.392Z,18.40
2022-10-28T11:43:25.982Z,18.20
2022-10-28T11:45:05.904Z,18.20
2022-10-28T11:46:47.425Z,18.20
2022-10-28T11:48:31.290Z,18.20
2022-10-28T11:50:15.808Z,18.20
2022-10-28T11:51:57.404Z,18.30
2022-10-28T11:53:58.040Z,18.40
2022-10-28T11:55:37.030Z,18.80
2022-10-28T11:57:14.339Z,19.10
2022-10-28T11:59:01.718Z,19.20
2022-10-28T12:00:57.896Z,19.30
2022-10-28T12:02:50.718Z,19.40
2022-10-28T12:04:46.127Z,19.40
2022-10-28T12:06:26.171Z,19.10
2022-10-28T12:08:26.970Z,19.00
2022-10-28T12:10:15.922Z,19.10
2022-10-28T12:12:02.021Z,19.40
2022-10-28T12:13:44.140Z,20.10
2022-10-28T12:15:26.172Z,20.60
2022-10-28T12:17:06.531Z,21.00
2022-10-28T12:18:48.430Z,21.20
2022-10-28T12:20:25.300Z,21.20
2022-10-28T12:22:05.787Z,21.20
2022-10-28T12:23:41.453Z,21.60
2022-10-28T12:25:19.203Z,21.90
2022-10-28T12:26:56.390Z,22.00
2022-10-28T12:28:32.358Z,21.80
2022-10-28T12:30:16.473Z,21.70
2022-10-28T12:31:56.940Z,21.40
2022-10-28T12:33:36.046Z,21.30
2022-10-28T12:35:16.589Z,21.30
2022-10-28T12:36:55.404Z,21.40
2022-10-28T12:38:35.597Z,21.10
2022-10-28T12:40:15.219Z,21.10
2022-10-28T12:41:56.529Z,21.00
2022-10-28T12:43:35.542Z,20.80
2022-10-28T12:45:14.929Z,20.90
2022-10-28T12:46:57.148Z,20.90
2022-10-28T12:48:34.921Z,20.70
2022-10-28T12:50:19.330Z,20.30
2022-10-28T12:51:52.940Z,20.10
2022-10-28T12:53:35.499Z,19.90
2022-10-28T12:55:26.852Z,19.80
2022-10-28T12:57:05.899Z,19.60
2022-10-28T12:58:48.092Z,19.40
2022-10-28T13:00:26.309Z,19.20
2022-10-28T13:02:02.205Z,19.10
2022-10-28T13:03:37.423Z,19.00
2022-10-28T13:05:19.725Z,19.00
2022-10-28T13:07:27.165Z,19.10
2022-10-28T13:09:33.221Z,19.20
2022-10-28T13:11:40.811Z,19.60
2022-10-28T13:13:34.163Z,19.50
2022-10-28T13:15:31.432Z,19.30
2022-10-28T13:17:25.244Z,19.10
2022-10-28T13:19:43.599Z,18.90
2022-10-28T13:21:29.151Z,18.80
2022-10-28T13:23:11.645Z,18.70
2022-10-28T13:24:53.852Z,18.70
2022-10-28T13:26:29.635Z,18.70
2022-10-28T13:28:03.297Z,18.70
2022-10-28T13:29:37.443Z,18.70
2022-10-28T13:31:10.872Z,18.80
2022-10-28T13:32:45.788Z,18.80
2022-10-28T13:34:21.758Z,18.70
2022-10-28T13:35:56.227Z,18.70
2022-10-28T13:37:35.558Z,18.70
2022-10-28T13:39:26.120Z,18.80
2022-10-28T13:41:34.775Z,19.00
2022-10-28T13:43:20.034Z,19.20
2022-10-28T13:44:54.011Z,19.30
2022-10-28T13:47:15.765Z,19.20
2022-10-28T13:48:50.630Z,19.20
2022-10-28T13:50:35.392Z,19.40
2022-10-28T13:52:21.392Z,19.30
2022-10-28T13:53:57.621Z,19.20
2022-10-28T13:55:44.970Z,19.10
2022-10-28T13:57:26.168Z,19.00
2022-10-28T13:59:02.188Z,19.10
2022-10-28T14:00:38.335Z,19.30
2022-10-28T14:02:35.061Z,19.30
2022-10-28T14:04:24.299Z,19.20
2022-10-28T14:05:59.329Z,18.90
2022-10-28T14:07:34.955Z,18.80
2022-10-28T14:09:21.692Z,18.60
2022-10-28T14:11:03.072Z,18.30
2022-10-28T14:12:43.315Z,18.20
2022-10-28T14:14:18.211Z,18.10
2022-10-28T14:16:13.394Z,18.00
2022-10-28T14:17:51.553Z,18.00
2022-10-28T14:19:26.208Z,17.90
2022-10-28T14:21:01.607Z,17.90
2022-10-28T14:22:36.963Z,17.90
2022-10-28T14:24:13.051Z,17.80
2022-10-28T14:26:04.330Z,17.80
2022-10-28T14:27:44.328Z,17.70
2022-10-28T14:29:28.512Z,17.60
2022-10-28T14:31:38.981Z,17.60
2022-10-28T14:33:23.084Z,17.40
2022-10-28T14:34:59.818Z,17.30
2022-10-28T14:36:44.209Z,17.30
2022-10-28T14:39:12.039Z,17.10
2022-10-28T14:40:50.827Z,16.90
2022-10-28T14:44:52.193Z,16.80
2022-10-28T14:46:33.986Z,16.70
2022-10-28T14:48:48.747Z,16.70
2022-10-28T14:50:25.730Z,16.60
2022-10-28T14:52:04.336Z,16.60
2022-10-28T14:53:38.413Z,16.50
2022-10-28T14:55:22.450Z,16.50
2022-10-28T14:56:57.148Z,16.40
2022-10-28T14:58:36.209Z,16.40
2022-10-28T15:00:18.465Z,16.30
2022-10-28T15:02:00.929Z,16.30
2022-10-28T15:03:34.509Z,16.20
2022-10-28T15:05:18.242Z,16.20
2022-10-28T15:06:53.242Z,16.10
2022-10-28T15:08:26.341Z,16.00
2022-10-28T15:10:00.277Z,16.00
2022-10-28T15:11:33.476Z,16.00
2022-10-28T15:13:06.558Z,16.00
2022-10-28T15:14:41.135Z,16.00
2022-10-28T15:16:20.807Z,16.00
2022-10-28T15:17:54.670Z,16.00
2022-10-28T15:19:29.068Z,15.90
2022-10-28T15:21:09.230Z,15.90
2022-10-28T15:22:44.467Z,15.90
2022-10-28T15:24:16.529Z,15.90
2022-10-28T15:26:08.152Z,15.90
2022-10-28T15:27:42.797Z,15.90
2022-10-28T15:29:14.906Z,15.90
2022-10-28T15:30:47.970Z,15.90
2022-10-28T15:32:30.192Z,15.90
2022-10-28T15:34:03.236Z,15.90
2022-10-28T15:35:40.614Z,15.90
2022-10-28T15:37:18.754Z,15.90
2022-10-28T15:39:02.072Z,15.90
2022-10-28T15:40:37.760Z,15.90
2022-10-28T15:42:32.851Z,15.90
2022-10-28T15:44:06.352Z,16.00
2022-10-28T15:45:42.521Z,16.00
2022-10-28T15:47:20.664Z,16.00
2022-10-28T15:48:54.272Z,16.00
2022-10-28T15:50:32.983Z,15.90
2022-10-28T15:52:22.110Z,15.90
2022-10-28T15:54:11.317Z,15.90
2022-10-28T15:56:02.845Z,15.80
2022-10-28T15:57:48.732Z,15.80
2022-10-28T15:59:24.309Z,15.80
2022-10-28T16:00:58.869Z,15.80
2022-10-28T16:03:00.405Z,15.80
2022-10-28T16:04:44.950Z,15.80
2022-10-28T16:06:28.515Z,15.80
2022-10-28T16:08:03.325Z,15.80
2022-10-28T16:09:43.447Z,15.80
2022-10-28T16:11:19.844Z,15.80
2022-10-28T16:12:53.160Z,15.90
2022-10-28T16:14:35.250Z,15.90
2022-10-28T16:16:10.911Z,15.90
2022-10-28T16:17:44.694Z,15.90
2022-10-28T16:19:26.863Z,15.90
2022-10-28T16:21:00.870Z,15.90
2022-10-28T16:22:36.672Z,15.90
2022-10-28T16:24:11.655Z,15.90
2022-10-28T16:25:46.282Z,15.90
2022-10-28T16:27:21.288Z,15.90
2022-10-28T16:28:54.493Z,15.90
2022-10-28T16:30:27.627Z,15.90
2022-10-28T16:32:01.139Z,15.80
2022-10-28T16:33:36.036Z,15.80
2022-10-28T16:35:15.153Z,15.80
2022-10-28T16:36:48.402Z,15.80
2022-10-28T16:38:21.549Z,15.80
2022-10-28T16:39:55.244Z,15.70
2022-10-28T16:41:29.839Z,15.80
2022-10-28T16:43:02.937Z,15.70
2022-10-28T16:44:35.992Z,15.80
2022-10-28T16:46:10.548Z,15.80
2022-10-28T16:47:43.596Z,15.80
2022-10-28T16:49:16.630Z,15.80
2022-10-28T16:50:51.845Z,15.80
2022-10-28T16:52:26.864Z,15.80
2022-10-28T16:54:00.830Z,15.80
2022-10-28T16:55:34.102Z,15.80
2022-10-28T16:57:08.740Z,15.80
2022-10-28T16:58:42.323Z,15.70
2022-10-28T17:00:15.756Z,15.80
2022-10-28T17:01:48.890Z,15.80
2022-10-28T17:03:22.038Z,15.80
2022-10-28T17:04:55.106Z,15.80
2022-10-28T17:06:28.151Z,15.80
2022-10-28T17:08:05.811Z,15.80
2022-10-28T17:09:42.095Z,15.80
2022-10-28T17:11:16.133Z,15.80
2022-10-28T17:12:50.780Z,15.80
2022-10-28T17:14:23.811Z,15.80
2022-10-28T17:15:56.865Z,15.80
2022-10-28T17:17:30.097Z,15.80
2022-10-28T17:19:03.102Z,15.90
2022-10-28T17:20:36.202Z,15.80
2022-10-28T17:22:10.621Z,15.80
2022-10-28T17:23:43.768Z,15.80
2022-10-28T17:25:16.996Z,15.80
2022-10-28T17:26:49.032Z,15.80
2022-10-28T17:28:23.794Z,15.70
2022-10-28T17:29:55.898Z,15.70
2022-10-28T17:31:29.006Z,15.70
2022-10-28T17:33:02.037Z,15.70
2022-10-28T17:34:35.136Z,15.60
2022-10-28T17:36:09.017Z,15.60
2022-10-28T17:37:42.040Z,15.60
2022-10-28T17:39:18.573Z,15.60
2022-10-28T17:40:55.640Z,15.60
2022-10-28T17:42:28.973Z,15.50
2022-10-28T17:44:03.630Z,15.50
2022-10-28T17:45:36.665Z,15.40
2022-10-28T17:47:09.823Z,15.50
2022-10-28T17:48:42.843Z,15.50
2022-10-28T17:50:15.916Z,15.50
2022-10-28T17:51:48.970Z,15.50
2022-10-28T17:53:22.857Z,15.50
2022-10-28T17:54:55.899Z,15.60
2022-10-28T17:56:29.128Z,15.60
2022-10-28T17:58:02.175Z,15.60
2022-10-28T17:59:36.578Z,15.50
2022-10-28T18:01:09.957Z,15.40
2022-10-28T18:02:43.104Z,15.30
2022-10-28T18:04:16.274Z,15.30
2022-10-28T18:05:49.310Z,15.40
2022-10-28T18:07:22.344Z,15.40
2022-10-28T18:08:55.383Z,15.40
2022-10-28T18:10:28.415Z,15.40
2022-10-28T18:12:02.568Z,15.40
2022-10-28T18:13:37.853Z,15.40
2022-10-28T18:15:12.469Z,15.40
2022-10-28T18:16:46.633Z,15.40
2022-10-28T18:18:19.662Z,15.40
2022-10-28T18:19:52.667Z,15.50
2022-10-28T18:21:25.124Z,15.50
2022-10-28T18:22:58.254Z,15.40
2022-10-28T18:24:31.400Z,15.50
2022-10-28T18:26:06.024Z,15.50
2022-10-28T18:27:39.122Z,15.40
2022-10-28T18:29:13.175Z,15.40
2022-10-28T18:30:47.576Z,15.30
2022-10-28T18:32:20.598Z,15.30
2022-10-28T18:33:53.639Z,15.30
2022-10-28T18:35:26.942Z,15.30
2022-10-28T18:37:00.090Z,15.30
2022-10-28T18:38:32.326Z,15.20
2022-10-28T18:40:06.344Z,15.20
2022-10-28T18:41:42.606Z,15.20
2022-10-28T18:43:16.110Z,15.20
2022-10-28T18:44:49.179Z,15.20
2022-10-28T18:46:23.843Z,15.20
2022-10-28T18:47:57.177Z,15.20
2022-10-28T18:49:31.081Z,15.10
2022-10-28T18:51:07.392Z,15.20
2022-10-28T18:52:40.428Z,15.10
2022-10-28T18:54:13.656Z,15.10
2022-10-28T18:55:46.711Z,15.20
2022-10-28T18:57:19.783Z,15.10
2022-10-28T18:58:52.844Z,15.10
2022-10-28T19:00:25.891Z,15.10
2022-10-28T19:02:00.414Z,15.10
2022-10-28T19:03:33.475Z,15.00
2022-10-28T19:05:07.000Z,15.00
2022-10-28T19:06:41.708Z,15.00
2022-10-28T19:08:14.116Z,15.00
2022-10-28T19:09:47.149Z,14.90
2022-10-28T19:11:20.976Z,15.00
2022-10-28T19:12:54.028Z,15.00
2022-10-28T19:14:27.055Z,15.00
2022-10-28T19:16:00.543Z,15.00
2022-10-28T19:17:35.065Z,15.00
2022-10-28T19:19:08.095Z,14.90
2022-10-28T19:20:41.133Z,15.00
2022-10-28T19:22:14.203Z,15.00
2022-10-28T19:23:47.260Z,15.00
2022-10-28T19:25:20.276Z,15.00
2022-10-28T19:26:53.315Z,15.00
2022-10-28T19:28:26.765Z,15.00
2022-10-28T19:30:00.740Z,14.90
2022-10-28T19:31:36.831Z,15.00
2022-10-28T19:33:11.228Z,14.90
2022-10-28T19:34:44.287Z,14.90
2022-10-28T19:36:19.229Z,15.00
2022-10-28T19:37:53.641Z,15.00
2022-10-28T19:39:26.722Z,14.90
2022-10-28T19:41:06.787Z,14.90
2022-10-28T19:42:40.139Z,14.90
2022-10-28T19:44:13.344Z,14.90
2022-10-28T19:45:46.378Z,14.80
2022-10-28T19:47:19.411Z,14.80
2022-10-28T19:48:56.005Z,14.70
2022-10-28T19:50:29.018Z,14.70
2022-10-28T19:52:02.091Z,14.70
2022-10-28T19:53:35.523Z,14.60
2022-10-28T19:55:13.671Z,14.60
2022-10-28T19:56:49.092Z,14.60
2022-10-28T19:58:22.192Z,14.60
2022-10-28T19:59:55.241Z,14.60
2022-10-28T20:01:30.558Z,14.60
2022-10-28T20:03:03.907Z,14.70
2022-10-28T20:04:39.311Z,14.70
2022-10-28T20:06:14.491Z,14.70
2022-10-28T20:07:47.506Z,14.70
2022-10-28T20:09:22.894Z,14.60
2022-10-28T20:11:00.716Z,14.60
2022-10-28T20:12:33.744Z,14.60
2022-10-28T20:14:09.441Z,14.70
2022-10-28T20:15:42.539Z,14.70
2022-10-28T20:17:16.389Z,14.70
2022-10-28T20:18:49.679Z,14.70
2022-10-28T20:20:24.122Z,14.70
2022-10-28T20:21:57.712Z,14.70
2022-10-28T20:23:32.217Z,14.70
2022-10-28T20:25:08.510Z,14.90
2022-10-28T20:26:41.589Z,14.90
2022-10-28T20:28:14.618Z,15.00
2022-10-28T20:29:47.657Z,15.10
2022-10-28T20:31:22.338Z,15.20
2022-10-28T20:32:55.935Z,15.30
2022-10-28T20:34:29.093Z,15.30
2022-10-28T20:36:03.666Z,15.30
2022-10-28T20:37:36.925Z,15.30
2022-10-28T20:39:14.000Z,15.30
2022-10-28T20:40:49.483Z,15.40
2022-10-28T20:42:22.504Z,15.40
2022-10-28T20:43:55.908Z,15.40
2022-10-28T20:45:29.074Z,15.40
2022-10-28T20:47:02.099Z,15.40
2022-10-28T20:48:35.154Z,15.40
2022-10-28T20:50:09.407Z,15.40
2022-10-28T20:51:44.000Z,15.40
2022-10-28T20:53:17.007Z,15.40
2022-10-28T20:54:50.024Z,15.40